sensor_id;sensor_type;location;lat;lon;timestamp;P1;durP1;ratioP1;P2;durP2;ratioP2
20421;SDS011;10370;53.102;18.034;2023-02-28T00:00:59;85.80;;;32.13;;
20421;SDS011;10370;53.102;18.034;2023-02-28T00:06:27;84.67;;;31.27;;
20421;SDS011;10370;53.102;18.034;2023-02-28T00:17:45;75.20;;;29.93;;
20421;SDS011;10370;53.102;18.034;2023-02-28T00:23:11;80.20;;;29.80;;
20421;SDS011;10370;53.102;18.034;2023-02-28T00:28:43;79.97;;;32.03;;
20421;SDS011;10370;53.102;18.034;2023-02-28T00:34:08;84.27;;;31.90;;
20421;SDS011;10370;53.102;18.034;2023-02-28T00:39:39;84.10;;;32.37;;
20421;SDS011;10370;53.102;18.034;2023-02-28T00:45:07;78.97;;;33.30;;
20421;SDS011;10370;53.102;18.034;2023-02-28T00:50:31;83.93;;;33.03;;
20421;SDS011;10370;53.102;18.034;2023-02-28T00:56:16;78.50;;;33.20;;
20421;SDS011;10370;53.102;18.034;2023-02-28T01:01:37;83.70;;;33.10;;
20421;SDS011;10370;53.102;18.034;2023-02-28T01:12:43;87.07;;;34.33;;
20421;SDS011;10370;53.102;18.034;2023-02-28T01:18:04;85.13;;;33.87;;
20421;SDS011;10370;53.102;18.034;2023-02-28T01:23:29;95.73;;;35.23;;
20421;SDS011;10370;53.102;18.034;2023-02-28T01:29:01;105.60;;;39.30;;
20421;SDS011;10370;53.102;18.034;2023-02-28T01:34:35;117.97;;;39.07;;
20421;SDS011;10370;53.102;18.034;2023-02-28T01:40:03;99.60;;;36.67;;
20421;SDS011;10370;53.102;18.034;2023-02-28T01:45:28;140.80;;;45.50;;
20421;SDS011;10370;53.102;18.034;2023-02-28T01:50:59;112.33;;;39.37;;
20421;SDS011;10370;53.102;18.034;2023-02-28T01:56:52;98.13;;;37.27;;
20421;SDS011;10370;53.102;18.034;2023-02-28T02:02:30;98.50;;;36.63;;
20421;SDS011;10370;53.102;18.034;2023-02-28T02:07:54;107.17;;;37.53;;
20421;SDS011;10370;53.102;18.034;2023-02-28T02:19:19;109.80;;;39.53;;
20421;SDS011;10370;53.102;18.034;2023-02-28T02:43:01;150.60;;;52.50;;
20421;SDS011;10370;53.102;18.034;2023-02-28T02:48:34;115.93;;;40.90;;
20421;SDS011;10370;53.102;18.034;2023-02-28T02:54:03;117.50;;;38.53;;
20421;SDS011;10370;53.102;18.034;2023-02-28T02:59:33;119.70;;;39.73;;
20421;SDS011;10370;53.102;18.034;2023-02-28T03:05:12;109.33;;;40.23;;
20421;SDS011;10370;53.102;18.034;2023-02-28T03:10:43;113.27;;;39.47;;
20421;SDS011;10370;53.102;18.034;2023-02-28T03:22:56;105.77;;;38.80;;
20421;SDS011;10370;53.102;18.034;2023-02-28T03:28:47;126.10;;;41.83;;
20421;SDS011;10370;53.102;18.034;2023-02-28T03:40:32;114.13;;;39.83;;
20421;SDS011;10370;53.102;18.034;2023-02-28T03:46:04;185.53;;;73.07;;
20421;SDS011;10370;53.102;18.034;2023-02-28T03:51:59;134.30;;;49.20;;
20421;SDS011;10370;53.102;18.034;2023-02-28T04:09:38;125.17;;;42.97;;
20421;SDS011;10370;53.102;18.034;2023-02-28T04:15:08;122.27;;;44.77;;
20421;SDS011;10370;53.102;18.034;2023-02-28T04:20:33;112.30;;;41.07;;
20421;SDS011;10370;53.102;18.034;2023-02-28T04:25:59;122.27;;;41.63;;
20421;SDS011;10370;53.102;18.034;2023-02-28T04:31:22;118.10;;;41.07;;
20421;SDS011;10370;53.102;18.034;2023-02-28T04:36:48;109.97;;;37.17;;
20421;SDS011;10370;53.102;18.034;2023-02-28T04:42:30;128.83;;;45.60;;
20421;SDS011;10370;53.102;18.034;2023-02-28T04:48:04;109.57;;;39.73;;
20421;SDS011;10370;53.102;18.034;2023-02-28T04:53:28;120.43;;;40.57;;
20421;SDS011;10370;53.102;18.034;2023-02-28T04:59:17;110.60;;;41.00;;
20421;SDS011;10370;53.102;18.034;2023-02-28T05:04:42;115.77;;;39.50;;
20421;SDS011;10370;53.102;18.034;2023-02-28T05:10:05;153.17;;;48.23;;
20421;SDS011;10370;53.102;18.034;2023-02-28T05:15:31;172.43;;;50.83;;
20421;SDS011;10370;53.102;18.034;2023-02-28T05:20:57;285.83;;;63.50;;
20421;SDS011;10370;53.102;18.034;2023-02-28T05:26:25;246.67;;;60.10;;
20421;SDS011;10370;53.102;18.034;2023-02-28T05:32:03;281.43;;;61.37;;
20421;SDS011;10370;53.102;18.034;2023-02-28T05:37:35;245.13;;;58.67;;
20421;SDS011;10370;53.102;18.034;2023-02-28T05:43:03;233.73;;;56.00;;
20421;SDS011;10370;53.102;18.034;2023-02-28T05:48:34;222.97;;;54.27;;
20421;SDS011;10370;53.102;18.034;2023-02-28T05:59:50;219.43;;;53.40;;
20421;SDS011;10370;53.102;18.034;2023-02-28T06:05:24;139.57;;;44.03;;
20421;SDS011;10370;53.102;18.034;2023-02-28T06:11:08;140.60;;;44.30;;
20421;SDS011;10370;53.102;18.034;2023-02-28T06:16:32;154.87;;;47.20;;
20421;SDS011;10370;53.102;18.034;2023-02-28T06:21:55;140.00;;;46.37;;
20421;SDS011;10370;53.102;18.034;2023-02-28T06:27:22;142.30;;;45.77;;
20421;SDS011;10370;53.102;18.034;2023-02-28T06:32:46;142.40;;;48.70;;
20421;SDS011;10370;53.102;18.034;2023-02-28T06:38:14;145.27;;;48.13;;
20421;SDS011;10370;53.102;18.034;2023-02-28T06:43:47;167.23;;;51.13;;
20421;SDS011;10370;53.102;18.034;2023-02-28T06:49:12;163.50;;;48.70;;
20421;SDS011;10370;53.102;18.034;2023-02-28T06:54:37;170.90;;;51.17;;
20421;SDS011;10370;53.102;18.034;2023-02-28T07:00:26;170.47;;;55.50;;
20421;SDS011;10370;53.102;18.034;2023-02-28T07:05:49;164.10;;;56.40;;
20421;SDS011;10370;53.102;18.034;2023-02-28T07:11:12;138.33;;;50.60;;
20421;SDS011;10370;53.102;18.034;2023-02-28T07:16:40;132.17;;;47.93;;
20421;SDS011;10370;53.102;18.034;2023-02-28T07:22:14;119.80;;;43.60;;
20421;SDS011;10370;53.102;18.034;2023-02-28T07:27:40;109.50;;;42.27;;
20421;SDS011;10370;53.102;18.034;2023-02-28T07:33:06;114.57;;;41.40;;
20421;SDS011;10370;53.102;18.034;2023-02-28T07:38:52;113.40;;;42.17;;
20421;SDS011;10370;53.102;18.034;2023-02-28T07:44:32;99.93;;;39.53;;
20421;SDS011;10370;53.102;18.034;2023-02-28T07:49:56;105.87;;;42.17;;
20421;SDS011;10370;53.102;18.034;2023-02-28T07:55:38;98.73;;;42.17;;
20421;SDS011;10370;53.102;18.034;2023-02-28T08:01:07;106.00;;;43.13;;
20421;SDS011;10370;53.102;18.034;2023-02-28T08:06:35;107.73;;;45.03;;
20421;SDS011;10370;53.102;18.034;2023-02-28T08:12:00;124.60;;;50.23;;
20421;SDS011;10370;53.102;18.034;2023-02-28T08:17:30;105.20;;;43.40;;
20421;SDS011;10370;53.102;18.034;2023-02-28T08:22:54;84.67;;;35.53;;
20421;SDS011;10370;53.102;18.034;2023-02-28T08:28:19;78.50;;;32.93;;
20421;SDS011;10370;53.102;18.034;2023-02-28T08:33:46;82.07;;;34.47;;
20421;SDS011;10370;53.102;18.034;2023-02-28T08:39:11;54.00;;;24.17;;
20421;SDS011;10370;53.102;18.034;2023-02-28T08:44:36;48.30;;;20.43;;
20421;SDS011;10370;53.102;18.034;2023-02-28T08:49:58;34.70;;;14.63;;
20421;SDS011;10370;53.102;18.034;2023-02-28T08:55:19;29.50;;;13.63;;
20421;SDS011;10370;53.102;18.034;2023-02-28T09:00:44;34.70;;;15.07;;
20421;SDS011;10370;53.102;18.034;2023-02-28T09:06:10;25.40;;;11.97;;
20421;SDS011;10370;53.102;18.034;2023-02-28T09:11:34;31.93;;;14.23;;
20421;SDS011;10370;53.102;18.034;2023-02-28T09:16:58;31.23;;;13.90;;
20421;SDS011;10370;53.102;18.034;2023-02-28T09:22:25;29.33;;;13.33;;
20421;SDS011;10370;53.102;18.034;2023-02-28T09:27:50;30.27;;;14.47;;
20421;SDS011;10370;53.102;18.034;2023-02-28T09:33:12;29.60;;;13.23;;
20421;SDS011;10370;53.102;18.034;2023-02-28T09:38:39;21.13;;;10.83;;
20421;SDS011;10370;53.102;18.034;2023-02-28T09:44:06;32.70;;;12.20;;
20421;SDS011;10370;53.102;18.034;2023-02-28T09:49:39;24.33;;;11.17;;
20421;SDS011;10370;53.102;18.034;2023-02-28T09:55:39;24.27;;;11.57;;
20421;SDS011;10370;53.102;18.034;2023-02-28T10:33:18;22.07;;;10.97;;
20421;SDS011;10370;53.102;18.034;2023-02-28T10:45:06;24.47;;;11.83;;
20421;SDS011;10370;53.102;18.034;2023-02-28T10:50:37;25.57;;;12.83;;
20421;SDS011;10370;53.102;18.034;2023-02-28T10:56:18;26.80;;;13.57;;
20421;SDS011;10370;53.102;18.034;2023-02-28T11:01:45;28.07;;;12.57;;
20421;SDS011;10370;53.102;18.034;2023-02-28T11:07:23;26.27;;;12.83;;
20421;SDS011;10370;53.102;18.034;2023-02-28T11:13:00;26.00;;;12.90;;
20421;SDS011;10370;53.102;18.034;2023-02-28T11:24:27;24.70;;;12.17;;
20421;SDS011;10370;53.102;18.034;2023-02-28T11:30:04;23.13;;;11.60;;
20421;SDS011;10370;53.102;18.034;2023-02-28T11:35:52;23.30;;;11.67;;
20421;SDS011;10370;53.102;18.034;2023-02-28T11:52:52;39.43;;;14.53;;
20421;SDS011;10370;53.102;18.034;2023-02-28T11:58:26;25.43;;;11.70;;
20421;SDS011;10370;53.102;18.034;2023-02-28T12:26:44;22.63;;;10.20;;
20421;SDS011;10370;53.102;18.034;2023-02-28T12:38:18;18.50;;;9.00;;
20421;SDS011;10370;53.102;18.034;2023-02-28T12:43:46;18.10;;;8.80;;
20421;SDS011;10370;53.102;18.034;2023-02-28T12:49:16;26.00;;;10.80;;
20421;SDS011;10370;53.102;18.034;2023-02-28T12:55:00;30.77;;;14.10;;
20421;SDS011;10370;53.102;18.034;2023-02-28T13:00:30;18.40;;;8.67;;
20421;SDS011;10370;53.102;18.034;2023-02-28T13:11:57;20.97;;;8.87;;
20421;SDS011;10370;53.102;18.034;2023-02-28T13:17:20;18.83;;;8.10;;
20421;SDS011;10370;53.102;18.034;2023-02-28T13:22:48;18.53;;;9.10;;
20421;SDS011;10370;53.102;18.034;2023-02-28T13:28:13;60.57;;;31.83;;
20421;SDS011;10370;53.102;18.034;2023-02-28T13:34:14;19.87;;;9.43;;
20421;SDS011;10370;53.102;18.034;2023-02-28T14:01:48;25.97;;;8.93;;
20421;SDS011;10370;53.102;18.034;2023-02-28T14:07:25;16.40;;;6.77;;
20421;SDS011;10370;53.102;18.034;2023-02-28T14:18:26;13.73;;;6.30;;
20421;SDS011;10370;53.102;18.034;2023-02-28T14:41:04;19.27;;;5.40;;
20421;SDS011;10370;53.102;18.034;2023-02-28T14:46:38;27.13;;;9.50;;
20421;SDS011;10370;53.102;18.034;2023-02-28T14:52:06;17.70;;;7.23;;
20421;SDS011;10370;53.102;18.034;2023-02-28T14:57:54;13.83;;;7.00;;
20421;SDS011;10370;53.102;18.034;2023-02-28T15:03:38;17.57;;;6.53;;
20421;SDS011;10370;53.102;18.034;2023-02-28T15:09:17;16.87;;;6.77;;
20421;SDS011;10370;53.102;18.034;2023-02-28T15:14:39;20.73;;;6.97;;
20421;SDS011;10370;53.102;18.034;2023-02-28T15:20:04;16.90;;;6.70;;
20421;SDS011;10370;53.102;18.034;2023-02-28T15:25:34;14.50;;;7.67;;
20421;SDS011;10370;53.102;18.034;2023-02-28T15:31:03;17.43;;;8.27;;
20421;SDS011;10370;53.102;18.034;2023-02-28T15:36:40;14.43;;;6.60;;
20421;SDS011;10370;53.102;18.034;2023-02-28T15:42:12;14.47;;;5.57;;
20421;SDS011;10370;53.102;18.034;2023-02-28T15:47:48;16.30;;;5.90;;
20421;SDS011;10370;53.102;18.034;2023-02-28T15:59:24;14.70;;;7.07;;
20421;SDS011;10370;53.102;18.034;2023-02-28T16:10:31;13.83;;;6.70;;
20421;SDS011;10370;53.102;18.034;2023-02-28T16:15:54;19.60;;;8.60;;
20421;SDS011;10370;53.102;18.034;2023-02-28T16:21:19;33.50;;;16.33;;
20421;SDS011;10370;53.102;18.034;2023-02-28T16:26:41;25.13;;;11.43;;
20421;SDS011;10370;53.102;18.034;2023-02-28T16:32:10;98.67;;;32.97;;
20421;SDS011;10370;53.102;18.034;2023-02-28T16:37:37;98.03;;;31.23;;
20421;SDS011;10370;53.102;18.034;2023-02-28T16:43:18;22.77;;;8.50;;
20421;SDS011;10370;53.102;18.034;2023-02-28T16:48:48;30.33;;;9.97;;
20421;SDS011;10370;53.102;18.034;2023-02-28T16:54:13;36.13;;;11.87;;
20421;SDS011;10370;53.102;18.034;2023-02-28T16:59:39;43.03;;;14.83;;
20421;SDS011;10370;53.102;18.034;2023-02-28T17:05:06;63.33;;;17.77;;
20421;SDS011;10370;53.102;18.034;2023-02-28T17:10:33;84.93;;;33.33;;
20421;SDS011;10370;53.102;18.034;2023-02-28T17:16:01;272.10;;;117.63;;
20421;SDS011;10370;53.102;18.034;2023-02-28T17:21:31;139.50;;;60.47;;
20421;SDS011;10370;53.102;18.034;2023-02-28T17:27:06;124.67;;;48.97;;
20421;SDS011;10370;53.102;18.034;2023-02-28T17:32:34;128.53;;;40.07;;
20421;SDS011;10370;53.102;18.034;2023-02-28T17:37:57;148.40;;;42.10;;
20421;SDS011;10370;53.102;18.034;2023-02-28T17:43:25;118.40;;;34.70;;
20421;SDS011;10370;53.102;18.034;2023-02-28T17:48:50;60.10;;;21.70;;
20421;SDS011;10370;53.102;18.034;2023-02-28T17:54:15;36.23;;;14.40;;
20421;SDS011;10370;53.102;18.034;2023-02-28T17:59:38;30.10;;;12.70;;
20421;SDS011;10370;53.102;18.034;2023-02-28T18:05:04;31.93;;;12.80;;
20421;SDS011;10370;53.102;18.034;2023-02-28T18:10:31;36.07;;;13.27;;
20421;SDS011;10370;53.102;18.034;2023-02-28T18:16:05;45.43;;;14.97;;
20421;SDS011;10370;53.102;18.034;2023-02-28T18:21:51;41.60;;;16.00;;
20421;SDS011;10370;53.102;18.034;2023-02-28T18:27:15;45.03;;;18.33;;
20421;SDS011;10370;53.102;18.034;2023-02-28T18:33:00;54.67;;;19.87;;
20421;SDS011;10370;53.102;18.034;2023-02-28T18:38:26;58.80;;;19.43;;
20421;SDS011;10370;53.102;18.034;2023-02-28T18:44:01;53.73;;;20.70;;
20421;SDS011;10370;53.102;18.034;2023-02-28T18:49:38;48.50;;;18.77;;
20421;SDS011;10370;53.102;18.034;2023-02-28T18:55:01;56.13;;;22.77;;
20421;SDS011;10370;53.102;18.034;2023-02-28T19:00:29;64.30;;;24.27;;
20421;SDS011;10370;53.102;18.034;2023-02-28T19:05:59;87.07;;;31.07;;
20421;SDS011;10370;53.102;18.034;2023-02-28T19:11:22;76.53;;;29.00;;
20421;SDS011;10370;53.102;18.034;2023-02-28T19:16:44;70.00;;;27.07;;
20421;SDS011;10370;53.102;18.034;2023-02-28T19:22:11;68.27;;;24.80;;
20421;SDS011;10370;53.102;18.034;2023-02-28T19:27:34;103.90;;;31.27;;
20421;SDS011;10370;53.102;18.034;2023-02-28T19:32:57;136.67;;;40.37;;
20421;SDS011;10370;53.102;18.034;2023-02-28T19:38:21;141.70;;;40.73;;
20421;SDS011;10370;53.102;18.034;2023-02-28T19:43:46;93.57;;;35.00;;
20421;SDS011;10370;53.102;18.034;2023-02-28T19:49:28;105.07;;;35.43;;
20421;SDS011;10370;53.102;18.034;2023-02-28T19:54:53;115.77;;;40.03;;
20421;SDS011;10370;53.102;18.034;2023-02-28T20:00:30;120.13;;;41.93;;
20421;SDS011;10370;53.102;18.034;2023-02-28T20:06:00;118.97;;;43.33;;
20421;SDS011;10370;53.102;18.034;2023-02-28T20:11:25;144.90;;;49.97;;
20421;SDS011;10370;53.102;18.034;2023-02-28T20:16:47;137.07;;;46.27;;
20421;SDS011;10370;53.102;18.034;2023-02-28T20:22:50;143.20;;;46.67;;
20421;SDS011;10370;53.102;18.034;2023-02-28T20:28:11;113.53;;;44.17;;
20421;SDS011;10370;53.102;18.034;2023-02-28T20:33:49;132.97;;;46.30;;
20421;SDS011;10370;53.102;18.034;2023-02-28T20:39:14;128.00;;;45.93;;
20421;SDS011;10370;53.102;18.034;2023-02-28T20:44:42;132.60;;;46.60;;
20421;SDS011;10370;53.102;18.034;2023-02-28T20:50:05;137.97;;;50.63;;
20421;SDS011;10370;53.102;18.034;2023-02-28T20:55:31;147.30;;;51.67;;
20421;SDS011;10370;53.102;18.034;2023-02-28T21:06:24;292.60;;;80.23;;
20421;SDS011;10370;53.102;18.034;2023-02-28T21:11:52;231.90;;;65.43;;
20421;SDS011;10370;53.102;18.034;2023-02-28T21:17:13;217.90;;;60.80;;
20421;SDS011;10370;53.102;18.034;2023-02-28T21:22:45;233.27;;;67.07;;
20421;SDS011;10370;53.102;18.034;2023-02-28T21:28:06;213.20;;;63.03;;
20421;SDS011;10370;53.102;18.034;2023-02-28T21:33:30;195.70;;;61.80;;
20421;SDS011;10370;53.102;18.034;2023-02-28T21:39:19;186.17;;;60.43;;
20421;SDS011;10370;53.102;18.034;2023-02-28T21:44:47;255.10;;;73.57;;
20421;SDS011;10370;53.102;18.034;2023-02-28T21:50:10;230.47;;;65.10;;
20421;SDS011;10370;53.102;18.034;2023-02-28T21:55:42;215.60;;;63.43;;
20421;SDS011;10370;53.102;18.034;2023-02-28T22:01:06;203.60;;;60.53;;
20421;SDS011;10370;53.102;18.034;2023-02-28T22:06:37;188.83;;;54.63;;
20421;SDS011;10370;53.102;18.034;2023-02-28T22:12:16;166.47;;;52.90;;
20421;SDS011;10370;53.102;18.034;2023-02-28T22:18:01;155.10;;;49.37;;
20421;SDS011;10370;53.102;18.034;2023-02-28T22:23:24;309.90;;;77.97;;
20421;SDS011;10370;53.102;18.034;2023-02-28T22:34:28;193.07;;;62.03;;
20421;SDS011;10370;53.102;18.034;2023-02-28T22:40:09;182.23;;;56.03;;
20421;SDS011;10370;53.102;18.034;2023-02-28T22:45:34;176.90;;;55.40;;
20421;SDS011;10370;53.102;18.034;2023-02-28T22:51:01;183.90;;;55.70;;
20421;SDS011;10370;53.102;18.034;2023-02-28T22:56:42;197.87;;;59.90;;
20421;SDS011;10370;53.102;18.034;2023-02-28T23:02:09;198.73;;;59.97;;
20421;SDS011;10370;53.102;18.034;2023-02-28T23:08:18;224.07;;;65.00;;
20421;SDS011;10370;53.102;18.034;2023-02-28T23:13:59;234.40;;;65.80;;
20421;SDS011;10370;53.102;18.034;2023-02-28T23:19:27;281.87;;;80.10;;
20421;SDS011;10370;53.102;18.034;2023-02-28T23:25:31;277.23;;;75.17;;
20421;SDS011;10370;53.102;18.034;2023-02-28T23:30:59;285.93;;;78.00;;
20421;SDS011;10370;53.102;18.034;2023-02-28T23:36:37;201.27;;;58.37;;
20421;SDS011;10370;53.102;18.034;2023-02-28T23:42:07;234.90;;;68.47;;
20421;SDS011;10370;53.102;18.034;2023-02-28T23:47:32;244.97;;;69.60;;
20421;SDS011;10370;53.102;18.034;2023-02-28T23:53:04;199.23;;;60.63;;
20421;SDS011;10370;53.102;18.034;2023-02-28T23:58:28;239.47;;;66.30;;
